sensor_id;sensor_type;location;lat;lon;timestamp;P1;durP1;ratioP1;P2;durP2;ratioP2
22268;SDS011;11303;50.772;19.670;2022-08-06T00:01:09;27.27;;;20.58;;
22268;SDS011;11303;50.772;19.670;2022-08-06T00:03:11;21.98;;;17.50;;
22268;SDS011;11303;50.772;19.670;2022-08-06T00:05:14;21.63;;;15.77;;
22268;SDS011;11303;50.772;19.670;2022-08-06T00:07:24;21.25;;;16.40;;
22268;SDS011;11303;50.772;19.670;2022-08-06T00:09:29;20.92;;;15.15;;
22268;SDS011;11303;50.772;19.670;2022-08-06T00:11:51;17.45;;;15.48;;
22268;SDS011;11303;50.772;19.670;2022-08-06T00:13:59;23.35;;;15.23;;
22268;SDS011;11303;50.772;19.670;2022-08-06T00:16:03;25.42;;;15.85;;
22268;SDS011;11303;50.772;19.670;2022-08-06T00:18:24;20.13;;;15.30;;
22268;SDS011;11303;50.772;19.670;2022-08-06T00:20:26;24.65;;;16.50;;
22268;SDS011;11303;50.772;19.670;2022-08-06T00:22:31;20.27;;;15.52;;
22268;SDS011;11303;50.772;19.670;2022-08-06T00:24:33;21.75;;;16.17;;
22268;SDS011;11303;50.772;19.670;2022-08-06T00:26:35;17.35;;;15.60;;
22268;SDS011;11303;50.772;19.670;2022-08-06T00:28:39;23.60;;;15.98;;
22268;SDS011;11303;50.772;19.670;2022-08-06T00:30:41;20.52;;;16.17;;
22268;SDS011;11303;50.772;19.670;2022-08-06T00:32:44;20.45;;;15.73;;
22268;SDS011;11303;50.772;19.670;2022-08-06T00:34:52;19.85;;;16.45;;
22268;SDS011;11303;50.772;19.670;2022-08-06T00:36:54;21.38;;;15.45;;
22268;SDS011;11303;50.772;19.670;2022-08-06T00:38:56;18.63;;;16.13;;
22268;SDS011;11303;50.772;19.670;2022-08-06T00:41:00;20.05;;;16.00;;
22268;SDS011;11303;50.772;19.670;2022-08-06T00:43:04;22.33;;;16.55;;
22268;SDS011;11303;50.772;19.670;2022-08-06T00:45:09;24.05;;;16.33;;
22268;SDS011;11303;50.772;19.670;2022-08-06T00:47:25;18.30;;;15.57;;
22268;SDS011;11303;50.772;19.670;2022-08-06T00:49:46;21.23;;;16.15;;
22268;SDS011;11303;50.772;19.670;2022-08-06T00:51:51;21.98;;;16.05;;
22268;SDS011;11303;50.772;19.670;2022-08-06T00:53:52;18.15;;;15.98;;
22268;SDS011;11303;50.772;19.670;2022-08-06T00:55:58;25.98;;;17.27;;
22268;SDS011;11303;50.772;19.670;2022-08-06T00:58:08;22.58;;;19.92;;
22268;SDS011;11303;50.772;19.670;2022-08-06T01:00:13;24.27;;;18.90;;
22268;SDS011;11303;50.772;19.670;2022-08-06T01:02:30;20.88;;;18.40;;
22268;SDS011;11303;50.772;19.670;2022-08-06T01:04:33;27.40;;;18.65;;
22268;SDS011;11303;50.772;19.670;2022-08-06T01:06:35;28.52;;;19.52;;
22268;SDS011;11303;50.772;19.670;2022-08-06T01:08:57;22.45;;;19.20;;
22268;SDS011;11303;50.772;19.670;2022-08-06T01:10:59;25.25;;;18.60;;
22268;SDS011;11303;50.772;19.670;2022-08-06T01:13:03;24.63;;;18.08;;
22268;SDS011;11303;50.772;19.670;2022-08-06T01:15:24;26.85;;;18.02;;
22268;SDS011;11303;50.772;19.670;2022-08-06T01:23:02;24.98;;;17.27;;
22268;SDS011;11303;50.772;19.670;2022-08-06T01:30:33;23.65;;;16.48;;
22268;SDS011;11303;50.772;19.670;2022-08-06T01:32:42;20.85;;;16.65;;
22268;SDS011;11303;50.772;19.670;2022-08-06T01:34:54;20.77;;;16.60;;
22268;SDS011;11303;50.772;19.670;2022-08-06T01:37:03;24.73;;;17.42;;
22268;SDS011;11303;50.772;19.670;2022-08-06T01:39:10;27.33;;;18.35;;
22268;SDS011;11303;50.772;19.670;2022-08-06T01:41:23;22.15;;;18.38;;
22268;SDS011;11303;50.772;19.670;2022-08-06T01:43:59;26.27;;;18.02;;
22268;SDS011;11303;50.772;19.670;2022-08-06T01:46:15;26.23;;;18.65;;
22268;SDS011;11303;50.772;19.670;2022-08-06T01:48:18;29.95;;;19.20;;
22268;SDS011;11303;50.772;19.670;2022-08-06T01:50:35;29.83;;;18.42;;
22268;SDS011;11303;50.772;19.670;2022-08-06T01:52:41;20.90;;;18.30;;
22268;SDS011;11303;50.772;19.670;2022-08-06T01:55:01;26.65;;;18.83;;
22268;SDS011;11303;50.772;19.670;2022-08-06T01:57:05;22.23;;;17.55;;
22268;SDS011;11303;50.772;19.670;2022-08-06T01:59:12;21.83;;;18.45;;
22268;SDS011;11303;50.772;19.670;2022-08-06T02:01:14;27.48;;;18.75;;
22268;SDS011;11303;50.772;19.670;2022-08-06T02:03:51;22.80;;;19.05;;
22268;SDS011;11303;50.772;19.670;2022-08-06T02:05:59;26.50;;;19.50;;
22268;SDS011;11303;50.772;19.670;2022-08-06T02:08:01;26.00;;;20.20;;
22268;SDS011;11303;50.772;19.670;2022-08-06T02:10:24;27.55;;;21.40;;
22268;SDS011;11303;50.772;19.670;2022-08-06T02:12:26;24.95;;;19.58;;
22268;SDS011;11303;50.772;19.670;2022-08-06T02:14:32;29.30;;;20.67;;
22268;SDS011;11303;50.772;19.670;2022-08-06T02:16:37;24.67;;;20.70;;
22268;SDS011;11303;50.772;19.670;2022-08-06T02:18:43;27.27;;;20.05;;
22268;SDS011;11303;50.772;19.670;2022-08-06T02:20:51;25.30;;;20.05;;
22268;SDS011;11303;50.772;19.670;2022-08-06T02:22:54;22.08;;;19.45;;
22268;SDS011;11303;50.772;19.670;2022-08-06T02:24:59;21.85;;;19.13;;
22268;SDS011;11303;50.772;19.670;2022-08-06T02:27:15;24.88;;;18.45;;
22268;SDS011;11303;50.772;19.670;2022-08-06T02:29:24;25.45;;;19.40;;
22268;SDS011;11303;50.772;19.670;2022-08-06T02:31:47;25.83;;;19.35;;
22268;SDS011;11303;50.772;19.670;2022-08-06T02:33:52;32.15;;;20.13;;
22268;SDS011;11303;50.772;19.670;2022-08-06T02:36:21;27.20;;;20.60;;
22268;SDS011;11303;50.772;19.670;2022-08-06T02:40:44;24.55;;;19.95;;
22268;SDS011;11303;50.772;19.670;2022-08-06T02:42:50;30.05;;;20.42;;
22268;SDS011;11303;50.772;19.670;2022-08-06T02:47:14;33.58;;;19.30;;
22268;SDS011;11303;50.772;19.670;2022-08-06T02:49:21;25.92;;;19.50;;
22268;SDS011;11303;50.772;19.670;2022-08-06T02:51:32;27.23;;;19.35;;
22268;SDS011;11303;50.772;19.670;2022-08-06T02:53:58;22.42;;;18.75;;
22268;SDS011;11303;50.772;19.670;2022-08-06T02:56:08;22.92;;;19.98;;
22268;SDS011;11303;50.772;19.670;2022-08-06T02:58:35;27.58;;;23.10;;
22268;SDS011;11303;50.772;19.670;2022-08-06T03:00:45;26.65;;;20.25;;
22268;SDS011;11303;50.772;19.670;2022-08-06T03:02:52;25.45;;;20.35;;
22268;SDS011;11303;50.772;19.670;2022-08-06T03:04:56;23.38;;;19.50;;
22268;SDS011;11303;50.772;19.670;2022-08-06T03:07:00;23.38;;;20.48;;
22268;SDS011;11303;50.772;19.670;2022-08-06T03:09:25;30.00;;;20.27;;
22268;SDS011;11303;50.772;19.670;2022-08-06T03:11:33;30.35;;;20.77;;
22268;SDS011;11303;50.772;19.670;2022-08-06T03:13:38;30.15;;;24.08;;
22268;SDS011;11303;50.772;19.670;2022-08-06T03:15:42;30.70;;;23.73;;
22268;SDS011;11303;50.772;19.670;2022-08-06T03:18:02;21.23;;;18.40;;
22268;SDS011;11303;50.772;19.670;2022-08-06T03:20:05;26.00;;;18.58;;
22268;SDS011;11303;50.772;19.670;2022-08-06T03:22:17;24.35;;;17.05;;
22268;SDS011;11303;50.772;19.670;2022-08-06T03:24:40;20.38;;;18.27;;
22268;SDS011;11303;50.772;19.670;2022-08-06T03:26:47;22.13;;;18.25;;
22268;SDS011;11303;50.772;19.670;2022-08-06T03:28:49;21.05;;;16.35;;
22268;SDS011;11303;50.772;19.670;2022-08-06T03:30:52;21.63;;;17.33;;
22268;SDS011;11303;50.772;19.670;2022-08-06T03:32:56;22.75;;;17.27;;
22268;SDS011;11303;50.772;19.670;2022-08-06T03:35:07;19.40;;;17.10;;
22268;SDS011;11303;50.772;19.670;2022-08-06T03:37:29;19.10;;;16.52;;
22268;SDS011;11303;50.772;19.670;2022-08-06T03:39:51;21.25;;;15.65;;
22268;SDS011;11303;50.772;19.670;2022-08-06T03:41:54;20.50;;;14.75;;
22268;SDS011;11303;50.772;19.670;2022-08-06T03:44:09;19.42;;;15.13;;
22268;SDS011;11303;50.772;19.670;2022-08-06T03:46:13;17.45;;;14.70;;
22268;SDS011;11303;50.772;19.670;2022-08-06T03:48:20;18.20;;;14.60;;
22268;SDS011;11303;50.772;19.670;2022-08-06T03:50:40;15.40;;;13.37;;
22268;SDS011;11303;50.772;19.670;2022-08-06T03:52:46;19.88;;;13.63;;
22268;SDS011;11303;50.772;19.670;2022-08-06T03:54:51;21.60;;;14.23;;
22268;SDS011;11303;50.772;19.670;2022-08-06T03:56:56;21.45;;;12.70;;
22268;SDS011;11303;50.772;19.670;2022-08-06T03:59:08;14.38;;;12.88;;
22268;SDS011;11303;50.772;19.670;2022-08-06T04:01:11;17.58;;;12.55;;
22268;SDS011;11303;50.772;19.670;2022-08-06T04:03:20;18.40;;;12.23;;
22268;SDS011;11303;50.772;19.670;2022-08-06T04:05:24;16.10;;;11.77;;
22268;SDS011;11303;50.772;19.670;2022-08-06T04:07:27;12.75;;;11.43;;
22268;SDS011;11303;50.772;19.670;2022-08-06T04:09:50;15.50;;;11.02;;
22268;SDS011;11303;50.772;19.670;2022-08-06T04:12:01;16.30;;;10.57;;
22268;SDS011;11303;50.772;19.670;2022-08-06T04:14:24;11.73;;;10.27;;
22268;SDS011;11303;50.772;19.670;2022-08-06T04:16:28;13.23;;;8.70;;
22268;SDS011;11303;50.772;19.670;2022-08-06T04:18:37;11.48;;;9.10;;
22268;SDS011;11303;50.772;19.670;2022-08-06T04:20:43;11.73;;;9.73;;
22268;SDS011;11303;50.772;19.670;2022-08-06T04:22:53;11.68;;;9.70;;
22268;SDS011;11303;50.772;19.670;2022-08-06T04:25:07;13.15;;;9.35;;
22268;SDS011;11303;50.772;19.670;2022-08-06T04:27:13;15.65;;;10.38;;
22268;SDS011;11303;50.772;19.670;2022-08-06T04:29:20;10.35;;;9.02;;
22268;SDS011;11303;50.772;19.670;2022-08-06T04:31:24;10.55;;;8.88;;
22268;SDS011;11303;50.772;19.670;2022-08-06T04:33:47;12.55;;;9.52;;
22268;SDS011;11303;50.772;19.670;2022-08-06T04:35:52;11.70;;;9.38;;
22268;SDS011;11303;50.772;19.670;2022-08-06T04:38:14;21.08;;;8.25;;
22268;SDS011;11303;50.772;19.670;2022-08-06T04:40:28;12.98;;;8.77;;
22268;SDS011;11303;50.772;19.670;2022-08-06T04:42:41;12.13;;;8.57;;
22268;SDS011;11303;50.772;19.670;2022-08-06T04:44:50;9.73;;;8.25;;
22268;SDS011;11303;50.772;19.670;2022-08-06T04:47:00;8.95;;;8.02;;
22268;SDS011;11303;50.772;19.670;2022-08-06T04:49:03;9.48;;;8.57;;
22268;SDS011;11303;50.772;19.670;2022-08-06T04:51:07;9.07;;;7.85;;
22268;SDS011;11303;50.772;19.670;2022-08-06T04:53:17;13.32;;;9.55;;
22268;SDS011;11303;50.772;19.670;2022-08-06T04:55:40;12.68;;;8.77;;
22268;SDS011;11303;50.772;19.670;2022-08-06T04:58:04;17.30;;;8.07;;
22268;SDS011;11303;50.772;19.670;2022-08-06T05:00:11;11.85;;;8.85;;
22268;SDS011;11303;50.772;19.670;2022-08-06T05:02:32;10.38;;;8.60;;
22268;SDS011;11303;50.772;19.670;2022-08-06T05:04:33;11.77;;;8.68;;
22268;SDS011;11303;50.772;19.670;2022-08-06T05:09:24;11.68;;;9.52;;
22268;SDS011;11303;50.772;19.670;2022-08-06T05:11:47;10.82;;;7.35;;
22268;SDS011;11303;50.772;19.670;2022-08-06T05:14:10;9.82;;;8.85;;
22268;SDS011;11303;50.772;19.670;2022-08-06T05:16:18;9.00;;;7.38;;
22268;SDS011;11303;50.772;19.670;2022-08-06T05:18:26;10.57;;;8.68;;
22268;SDS011;11303;50.772;19.670;2022-08-06T05:20:52;13.05;;;7.75;;
22268;SDS011;11303;50.772;19.670;2022-08-06T05:23:03;6.07;;;5.38;;
22268;SDS011;11303;50.772;19.670;2022-08-06T05:25:22;10.27;;;6.70;;
22268;SDS011;11303;50.772;19.670;2022-08-06T05:27:28;9.68;;;7.43;;
22268;SDS011;11303;50.772;19.670;2022-08-06T05:29:50;9.90;;;7.93;;
22268;SDS011;11303;50.772;19.670;2022-08-06T05:31:59;9.57;;;7.55;;
22268;SDS011;11303;50.772;19.670;2022-08-06T05:34:03;7.93;;;7.13;;
22268;SDS011;11303;50.772;19.670;2022-08-06T05:36:06;9.23;;;8.10;;
22268;SDS011;11303;50.772;19.670;2022-08-06T05:38:19;7.43;;;6.20;;
22268;SDS011;11303;50.772;19.670;2022-08-06T05:40:32;9.60;;;7.88;;
22268;SDS011;11303;50.772;19.670;2022-08-06T05:42:55;8.15;;;7.38;;
22268;SDS011;11303;50.772;19.670;2022-08-06T05:44:58;12.50;;;7.88;;
22268;SDS011;11303;50.772;19.670;2022-08-06T05:47:02;8.13;;;7.32;;
22268;SDS011;11303;50.772;19.670;2022-08-06T05:49:17;9.55;;;6.28;;
22268;SDS011;11303;50.772;19.670;2022-08-06T05:52:19;10.38;;;7.40;;
22268;SDS011;11303;50.772;19.670;2022-08-06T05:54:27;10.05;;;7.10;;
22268;SDS011;11303;50.772;19.670;2022-08-06T05:56:35;9.65;;;7.32;;
22268;SDS011;11303;50.772;19.670;2022-08-06T05:58:44;16.13;;;6.88;;
22268;SDS011;11303;50.772;19.670;2022-08-06T06:00:56;8.43;;;7.32;;
22268;SDS011;11303;50.772;19.670;2022-08-06T06:03:01;9.63;;;6.28;;
22268;SDS011;11303;50.772;19.670;2022-08-06T06:05:05;11.15;;;7.78;;
22268;SDS011;11303;50.772;19.670;2022-08-06T06:07:28;10.68;;;6.45;;
22268;SDS011;11303;50.772;19.670;2022-08-06T06:09:50;9.38;;;7.00;;
22268;SDS011;11303;50.772;19.670;2022-08-06T06:12:04;8.25;;;6.75;;
22268;SDS011;11303;50.772;19.670;2022-08-06T06:14:23;11.68;;;6.88;;
22268;SDS011;11303;50.772;19.670;2022-08-06T06:16:42;8.90;;;6.72;;
22268;SDS011;11303;50.772;19.670;2022-08-06T06:19:20;12.00;;;6.68;;
22268;SDS011;11303;50.772;19.670;2022-08-06T06:22:13;7.30;;;6.60;;
22268;SDS011;11303;50.772;19.670;2022-08-06T06:24:19;6.68;;;5.25;;
22268;SDS011;11303;50.772;19.670;2022-08-06T06:28:58;7.20;;;5.72;;
22268;SDS011;11303;50.772;19.670;2022-08-06T06:31:19;7.70;;;4.60;;
22268;SDS011;11303;50.772;19.670;2022-08-06T06:34:14;9.75;;;6.60;;
22268;SDS011;11303;50.772;19.670;2022-08-06T06:39:07;10.43;;;6.10;;
22268;SDS011;11303;50.772;19.670;2022-08-06T06:41:58;11.57;;;6.68;;
22268;SDS011;11303;50.772;19.670;2022-08-06T06:46:57;6.40;;;5.65;;
22268;SDS011;11303;50.772;19.670;2022-08-06T06:49:14;8.65;;;6.22;;
22268;SDS011;11303;50.772;19.670;2022-08-06T06:51:43;9.25;;;5.90;;
22268;SDS011;11303;50.772;19.670;2022-08-06T06:53:58;15.75;;;6.63;;
22268;SDS011;11303;50.772;19.670;2022-08-06T06:56:07;9.45;;;5.97;;
22268;SDS011;11303;50.772;19.670;2022-08-06T06:58:13;7.65;;;5.95;;
22268;SDS011;11303;50.772;19.670;2022-08-06T07:00:25;17.23;;;6.55;;
22268;SDS011;11303;50.772;19.670;2022-08-06T07:02:47;17.67;;;6.43;;
22268;SDS011;11303;50.772;19.670;2022-08-06T07:04:50;10.77;;;6.20;;
22268;SDS011;11303;50.772;19.670;2022-08-06T07:06:53;5.38;;;4.88;;
22268;SDS011;11303;50.772;19.670;2022-08-06T07:09:00;13.07;;;5.38;;
22268;SDS011;11303;50.772;19.670;2022-08-06T07:11:22;5.07;;;4.60;;
22268;SDS011;11303;50.772;19.670;2022-08-06T07:13:27;16.45;;;5.22;;
22268;SDS011;11303;50.772;19.670;2022-08-06T07:15:51;5.93;;;5.13;;
22268;SDS011;11303;50.772;19.670;2022-08-06T07:17:54;5.93;;;5.30;;
22268;SDS011;11303;50.772;19.670;2022-08-06T07:20:27;13.77;;;5.18;;
22268;SDS011;11303;50.772;19.670;2022-08-06T07:22:30;6.65;;;5.80;;
22268;SDS011;11303;50.772;19.670;2022-08-06T07:24:33;8.40;;;6.30;;
22268;SDS011;11303;50.772;19.670;2022-08-06T07:26:43;9.90;;;6.63;;
22268;SDS011;11303;50.772;19.670;2022-08-06T07:28:52;11.82;;;7.22;;
22268;SDS011;11303;50.772;19.670;2022-08-06T07:31:04;11.30;;;6.82;;
22268;SDS011;11303;50.772;19.670;2022-08-06T07:33:10;18.88;;;7.85;;
22268;SDS011;11303;50.772;19.670;2022-08-06T07:35:13;21.60;;;8.68;;
22268;SDS011;11303;50.772;19.670;2022-08-06T07:37:17;12.98;;;7.70;;
22268;SDS011;11303;50.772;19.670;2022-08-06T07:39:23;7.22;;;6.35;;
22268;SDS011;11303;50.772;19.670;2022-08-06T07:41:32;11.93;;;8.05;;
22268;SDS011;11303;50.772;19.670;2022-08-06T07:43:57;7.95;;;7.10;;
22268;SDS011;11303;50.772;19.670;2022-08-06T07:46:00;8.18;;;7.35;;
22268;SDS011;11303;50.772;19.670;2022-08-06T07:48:05;12.05;;;7.50;;
22268;SDS011;11303;50.772;19.670;2022-08-06T07:50:12;9.23;;;5.90;;
22268;SDS011;11303;50.772;19.670;2022-08-06T07:52:14;8.57;;;5.68;;
22268;SDS011;11303;50.772;19.670;2022-08-06T07:54:18;11.88;;;5.60;;
22268;SDS011;11303;50.772;19.670;2022-08-06T07:56:35;8.38;;;5.38;;
22268;SDS011;11303;50.772;19.670;2022-08-06T07:59:00;8.80;;;6.15;;
22268;SDS011;11303;50.772;19.670;2022-08-06T08:01:07;8.82;;;5.80;;
22268;SDS011;11303;50.772;19.670;2022-08-06T08:03:09;15.73;;;5.80;;
22268;SDS011;11303;50.772;19.670;2022-08-06T08:05:49;7.28;;;5.07;;
22268;SDS011;11303;50.772;19.670;2022-08-06T08:08:10;6.85;;;4.80;;
22268;SDS011;11303;50.772;19.670;2022-08-06T08:10:12;6.18;;;3.65;;
22268;SDS011;11303;50.772;19.670;2022-08-06T08:12:16;16.85;;;5.45;;
22268;SDS011;11303;50.772;19.670;2022-08-06T08:14:36;5.40;;;4.47;;
22268;SDS011;11303;50.772;19.670;2022-08-06T08:16:48;7.63;;;4.75;;
22268;SDS011;11303;50.772;19.670;2022-08-06T08:18:52;10.93;;;4.28;;
22268;SDS011;11303;50.772;19.670;2022-08-06T08:20:56;9.23;;;3.70;;
22268;SDS011;11303;50.772;19.670;2022-08-06T08:23:04;4.68;;;3.92;;
22268;SDS011;11303;50.772;19.670;2022-08-06T08:25:24;15.57;;;4.85;;
22268;SDS011;11303;50.772;19.670;2022-08-06T08:27:53;9.30;;;3.60;;
22268;SDS011;11303;50.772;19.670;2022-08-06T08:29:55;4.65;;;4.25;;
22268;SDS011;11303;50.772;19.670;2022-08-06T08:32:00;5.25;;;3.88;;
22268;SDS011;11303;50.772;19.670;2022-08-06T08:34:15;12.05;;;3.92;;
22268;SDS011;11303;50.772;19.670;2022-08-06T08:36:18;3.85;;;2.20;;
22268;SDS011;11303;50.772;19.670;2022-08-06T08:38:31;3.08;;;2.55;;
22268;SDS011;11303;50.772;19.670;2022-08-06T08:40:35;9.07;;;2.55;;
22268;SDS011;11303;50.772;19.670;2022-08-06T08:42:43;2.70;;;2.22;;
22268;SDS011;11303;50.772;19.670;2022-08-06T08:44:46;2.75;;;2.55;;
22268;SDS011;11303;50.772;19.670;2022-08-06T08:46:50;2.55;;;2.35;;
22268;SDS011;11303;50.772;19.670;2022-08-06T08:49:02;2.43;;;2.17;;
22268;SDS011;11303;50.772;19.670;2022-08-06T08:51:07;2.72;;;2.30;;
22268;SDS011;11303;50.772;19.670;2022-08-06T08:53:14;3.63;;;2.72;;
22268;SDS011;11303;50.772;19.670;2022-08-06T08:55:42;2.92;;;2.38;;
22268;SDS011;11303;50.772;19.670;2022-08-06T08:58:03;2.58;;;1.88;;
22268;SDS011;11303;50.772;19.670;2022-08-06T09:00:25;3.08;;;2.70;;
22268;SDS011;11303;50.772;19.670;2022-08-06T09:02:27;4.40;;;2.80;;
22268;SDS011;11303;50.772;19.670;2022-08-06T09:04:31;3.58;;;3.10;;
22268;SDS011;11303;50.772;19.670;2022-08-06T09:06:34;3.53;;;3.10;;
22268;SDS011;11303;50.772;19.670;2022-08-06T09:08:40;2.00;;;1.88;;
22268;SDS011;11303;50.772;19.670;2022-08-06T09:11:02;6.82;;;1.70;;
22268;SDS011;11303;50.772;19.670;2022-08-06T09:13:12;2.88;;;1.70;;
22268;SDS011;11303;50.772;19.670;2022-08-06T09:15:24;2.40;;;2.13;;
22268;SDS011;11303;50.772;19.670;2022-08-06T09:17:26;4.53;;;2.20;;
22268;SDS011;11303;50.772;19.670;2022-08-06T09:19:50;2.92;;;1.30;;
22268;SDS011;11303;50.772;19.670;2022-08-06T09:21:52;6.32;;;1.70;;
22268;SDS011;11303;50.772;19.670;2022-08-06T09:23:54;4.25;;;1.42;;
22268;SDS011;11303;50.772;19.670;2022-08-06T09:25:58;3.20;;;1.50;;
22268;SDS011;11303;50.772;19.670;2022-08-06T09:30:29;3.50;;;1.70;;
22268;SDS011;11303;50.772;19.670;2022-08-06T09:32:50;2.80;;;1.58;;
22268;SDS011;11303;50.772;19.670;2022-08-06T09:34:57;1.52;;;1.42;;
22268;SDS011;11303;50.772;19.670;2022-08-06T09:37:05;5.32;;;2.42;;
22268;SDS011;11303;50.772;19.670;2022-08-06T09:39:07;1.75;;;1.65;;
22268;SDS011;11303;50.772;19.670;2022-08-06T09:41:12;4.85;;;1.40;;
22268;SDS011;11303;50.772;19.670;2022-08-06T09:43:25;2.22;;;2.03;;
22268;SDS011;11303;50.772;19.670;2022-08-06T09:45:47;4.63;;;3.00;;
22268;SDS011;11303;50.772;19.670;2022-08-06T09:48:03;8.07;;;4.03;;
22268;SDS011;11303;50.772;19.670;2022-08-06T09:50:34;3.97;;;2.95;;
22268;SDS011;11303;50.772;19.670;2022-08-06T09:52:37;10.45;;;6.90;;
22268;SDS011;11303;50.772;19.670;2022-08-06T09:54:42;8.73;;;4.97;;
22268;SDS011;11303;50.772;19.670;2022-08-06T09:56:55;7.40;;;4.47;;
22268;SDS011;11303;50.772;19.670;2022-08-06T09:58:58;4.28;;;3.88;;
22268;SDS011;11303;50.772;19.670;2022-08-06T10:01:19;4.57;;;4.10;;
22268;SDS011;11303;50.772;19.670;2022-08-06T10:03:23;6.22;;;3.80;;
22268;SDS011;11303;50.772;19.670;2022-08-06T10:06:01;5.30;;;4.80;;
22268;SDS011;11303;50.772;19.670;2022-08-06T10:08:12;5.60;;;5.10;;
22268;SDS011;11303;50.772;19.670;2022-08-06T10:10:38;9.50;;;4.25;;
22268;SDS011;11303;50.772;19.670;2022-08-06T10:12:45;6.05;;;5.47;;
22268;SDS011;11303;50.772;19.670;2022-08-06T10:14:47;5.18;;;4.68;;
22268;SDS011;11303;50.772;19.670;2022-08-06T10:19:23;7.15;;;6.03;;
22268;SDS011;11303;50.772;19.670;2022-08-06T10:21:36;7.25;;;6.50;;
22268;SDS011;11303;50.772;19.670;2022-08-06T10:23:49;11.18;;;8.38;;
22268;SDS011;11303;50.772;19.670;2022-08-06T10:25:54;17.60;;;10.65;;
22268;SDS011;11303;50.772;19.670;2022-08-06T10:27:56;9.48;;;8.65;;
22268;SDS011;11303;50.772;19.670;2022-08-06T10:29:59;11.30;;;10.18;;
22268;SDS011;11303;50.772;19.670;2022-08-06T10:32:04;11.35;;;10.35;;
22268;SDS011;11303;50.772;19.670;2022-08-06T10:34:13;10.68;;;9.68;;
22268;SDS011;11303;50.772;19.670;2022-08-06T10:36:24;11.10;;;9.63;;
22268;SDS011;11303;50.772;19.670;2022-08-06T10:38:37;14.57;;;9.88;;
22268;SDS011;11303;50.772;19.670;2022-08-06T10:40:53;16.70;;;8.20;;
22268;SDS011;11303;50.772;19.670;2022-08-06T10:43:00;8.15;;;7.35;;
22268;SDS011;11303;50.772;19.670;2022-08-06T10:45:16;5.50;;;5.05;;
22268;SDS011;11303;50.772;19.670;2022-08-06T10:47:19;7.68;;;6.55;;
22268;SDS011;11303;50.772;19.670;2022-08-06T10:49:43;4.93;;;4.50;;
22268;SDS011;11303;50.772;19.670;2022-08-06T10:52:05;6.53;;;5.93;;
22268;SDS011;11303;50.772;19.670;2022-08-06T10:54:14;6.85;;;5.63;;
22268;SDS011;11303;50.772;19.670;2022-08-06T10:56:22;5.25;;;4.43;;
22268;SDS011;11303;50.772;19.670;2022-08-06T10:58:44;5.05;;;4.32;;
22268;SDS011;11303;50.772;19.670;2022-08-06T11:00:46;3.55;;;3.20;;
22268;SDS011;11303;50.772;19.670;2022-08-06T11:03:09;6.60;;;4.22;;
22268;SDS011;11303;50.772;19.670;2022-08-06T11:05:15;4.68;;;4.05;;
22268;SDS011;11303;50.772;19.670;2022-08-06T11:15:45;5.78;;;3.17;;
22268;SDS011;11303;50.772;19.670;2022-08-06T11:18:02;3.53;;;3.17;;
22268;SDS011;11303;50.772;19.670;2022-08-06T11:22:37;4.00;;;3.60;;
22268;SDS011;11303;50.772;19.670;2022-08-06T11:24:52;3.97;;;2.90;;
22268;SDS011;11303;50.772;19.670;2022-08-06T11:26:58;4.22;;;3.33;;
22268;SDS011;11303;50.772;19.670;2022-08-06T11:29:12;3.22;;;2.95;;
22268;SDS011;11303;50.772;19.670;2022-08-06T11:35:54;5.90;;;4.40;;
22268;SDS011;11303;50.772;19.670;2022-08-06T11:38:00;7.03;;;3.67;;
22268;SDS011;11303;50.772;19.670;2022-08-06T11:40:24;4.05;;;3.60;;
22268;SDS011;11303;50.772;19.670;2022-08-06T11:42:40;4.57;;;3.20;;
22268;SDS011;11303;50.772;19.670;2022-08-06T11:45:00;3.97;;;2.80;;
22268;SDS011;11303;50.772;19.670;2022-08-06T11:47:09;3.67;;;3.13;;
22268;SDS011;11303;50.772;19.670;2022-08-06T11:49:18;3.80;;;3.03;;
22268;SDS011;11303;50.772;19.670;2022-08-06T11:51:49;2.90;;;2.70;;
22268;SDS011;11303;50.772;19.670;2022-08-06T11:54:07;2.92;;;2.25;;
22268;SDS011;11303;50.772;19.670;2022-08-06T11:56:23;2.88;;;2.67;;
22268;SDS011;11303;50.772;19.670;2022-08-06T11:58:33;4.10;;;3.00;;
22268;SDS011;11303;50.772;19.670;2022-08-06T12:00:55;4.53;;;3.35;;
22268;SDS011;11303;50.772;19.670;2022-08-06T12:02:58;5.60;;;3.70;;
22268;SDS011;11303;50.772;19.670;2022-08-06T12:05:03;4.15;;;3.85;;
22268;SDS011;11303;50.772;19.670;2022-08-06T12:07:19;6.07;;;3.80;;
22268;SDS011;11303;50.772;19.670;2022-08-06T12:14:36;3.67;;;3.30;;
22268;SDS011;11303;50.772;19.670;2022-08-06T12:16:51;3.83;;;3.53;;
22268;SDS011;11303;50.772;19.670;2022-08-06T12:18:54;5.32;;;3.22;;
22268;SDS011;11303;50.772;19.670;2022-08-06T12:21:09;5.18;;;3.40;;
22268;SDS011;11303;50.772;19.670;2022-08-06T12:23:19;4.45;;;3.60;;
22268;SDS011;11303;50.772;19.670;2022-08-06T12:25:44;4.25;;;2.63;;
22268;SDS011;11303;50.772;19.670;2022-08-06T12:27:56;3.67;;;2.40;;
22268;SDS011;11303;50.772;19.670;2022-08-06T12:30:07;3.63;;;2.83;;
22268;SDS011;11303;50.772;19.670;2022-08-06T12:32:27;3.80;;;3.42;;
22268;SDS011;11303;50.772;19.670;2022-08-06T12:34:33;6.72;;;3.70;;
22268;SDS011;11303;50.772;19.670;2022-08-06T12:36:51;6.10;;;4.17;;
22268;SDS011;11303;50.772;19.670;2022-08-06T12:38:54;6.13;;;4.88;;
22268;SDS011;11303;50.772;19.670;2022-08-06T12:41:32;4.50;;;3.92;;
22268;SDS011;11303;50.772;19.670;2022-08-06T12:43:47;4.72;;;3.33;;
22268;SDS011;11303;50.772;19.670;2022-08-06T12:45:58;4.45;;;3.10;;
22268;SDS011;11303;50.772;19.670;2022-08-06T12:48:11;5.68;;;3.20;;
22268;SDS011;11303;50.772;19.670;2022-08-06T12:50:22;3.72;;;2.90;;
22268;SDS011;11303;50.772;19.670;2022-08-06T12:52:39;5.30;;;2.90;;
22268;SDS011;11303;50.772;19.670;2022-08-06T12:54:41;3.53;;;2.88;;
22268;SDS011;11303;50.772;19.670;2022-08-06T12:56:55;2.65;;;2.33;;
22268;SDS011;11303;50.772;19.670;2022-08-06T12:58:59;2.40;;;2.20;;
22268;SDS011;11303;50.772;19.670;2022-08-06T13:01:02;3.40;;;2.80;;
22268;SDS011;11303;50.772;19.670;2022-08-06T13:03:06;4.88;;;2.83;;
22268;SDS011;11303;50.772;19.670;2022-08-06T13:05:10;3.47;;;2.55;;
22268;SDS011;11303;50.772;19.670;2022-08-06T13:07:16;3.83;;;2.67;;
22268;SDS011;11303;50.772;19.670;2022-08-06T13:09:38;4.32;;;2.67;;
22268;SDS011;11303;50.772;19.670;2022-08-06T13:12:22;6.22;;;2.60;;
22268;SDS011;11303;50.772;19.670;2022-08-06T13:14:53;3.20;;;2.90;;
22268;SDS011;11303;50.772;19.670;2022-08-06T13:17:26;6.45;;;2.92;;
22268;SDS011;11303;50.772;19.670;2022-08-06T13:19:51;4.47;;;3.05;;
22268;SDS011;11303;50.772;19.670;2022-08-06T13:21:57;4.88;;;3.33;;
22268;SDS011;11303;50.772;19.670;2022-08-06T13:24:04;6.25;;;2.90;;
22268;SDS011;11303;50.772;19.670;2022-08-06T13:26:32;32.92;;;5.25;;
22268;SDS011;11303;50.772;19.670;2022-08-06T13:29:21;14.77;;;3.63;;
22268;SDS011;11303;50.772;19.670;2022-08-06T13:31:46;4.50;;;3.17;;
22268;SDS011;11303;50.772;19.670;2022-08-06T13:34:00;4.63;;;2.95;;
22268;SDS011;11303;50.772;19.670;2022-08-06T13:36:06;4.95;;;3.00;;
22268;SDS011;11303;50.772;19.670;2022-08-06T13:38:30;5.75;;;2.92;;
22268;SDS011;11303;50.772;19.670;2022-08-06T13:43:01;4.43;;;2.80;;
22268;SDS011;11303;50.772;19.670;2022-08-06T13:45:17;7.07;;;2.95;;
22268;SDS011;11303;50.772;19.670;2022-08-06T13:47:40;6.13;;;3.13;;